sensor_id;sensor_type;location;lat;lon;timestamp;temperature;humidity
34522;DHT22;25561;48.888;8.736;2022-11-15T06:49:43;9.70;99.90
34522;DHT22;25561;48.888;8.736;2022-11-15T06:52:45;9.80;99.90
34522;DHT22;25561;48.888;8.736;2022-11-15T06:55:47;10.00;99.90
34522;DHT22;25561;48.888;8.736;2022-11-15T06:58:56;10.20;99.90
34522;DHT22;25561;48.888;8.736;2022-11-15T07:01:58;10.30;99.90
34522;DHT22;25561;48.888;8.736;2022-11-15T07:04:59;10.30;99.90
34522;DHT22;25561;48.888;8.736;2022-11-15T07:08:02;10.30;99.90
34522;DHT22;25561;48.888;8.736;2022-11-15T07:11:06;10.40;99.90
34522;DHT22;25561;48.888;8.736;2022-11-15T07:14:09;10.40;99.90
34522;DHT22;25561;48.888;8.736;2022-11-15T07:17:11;10.60;99.90
34522;DHT22;25561;48.888;8.736;2022-11-15T07:20:13;10.70;99.90
34522;DHT22;25561;48.888;8.736;2022-11-15T07:23:16;10.90;99.90
34522;DHT22;25561;48.888;8.736;2022-11-15T07:26:19;11.00;99.90
34522;DHT22;25561;48.888;8.736;2022-11-15T07:29:21;11.10;99.90
34522;DHT22;25561;48.888;8.736;2022-11-15T07:32:23;11.20;99.90
34522;DHT22;25561;48.888;8.736;2022-11-15T07:35:28;11.20;99.90
34522;DHT22;25561;48.888;8.736;2022-11-15T07:38:31;11.00;99.90
34522;DHT22;25561;48.888;8.736;2022-11-15T07:41:33;11.00;99.90
34522;DHT22;25561;48.888;8.736;2022-11-15T07:44:35;11.00;99.90
34522;DHT22;25561;48.888;8.736;2022-11-15T07:47:37;11.10;99.90
34522;DHT22;25561;48.888;8.736;2022-11-15T07:50:41;11.10;99.90
34522;DHT22;25561;48.888;8.736;2022-11-15T07:53:44;11.30;99.90
34522;DHT22;25561;48.888;8.736;2022-11-15T07:56:46;11.40;99.90
34522;DHT22;25561;48.888;8.736;2022-11-15T07:59:48;11.50;99.90
34522;DHT22;25561;48.888;8.736;2022-11-15T08:02:50;11.60;99.90
34522;DHT22;25561;48.888;8.736;2022-11-15T08:05:52;11.60;99.90
34522;DHT22;25561;48.888;8.736;2022-11-15T08:08:55;11.60;99.90
34522;DHT22;25561;48.888;8.736;2022-11-15T08:11:56;11.80;99.90
34522;DHT22;25561;48.888;8.736;2022-11-15T08:14:58;12.00;99.90
34522;DHT22;25561;48.888;8.736;2022-11-15T08:18:03;12.00;99.90
34522;DHT22;25561;48.888;8.736;2022-11-15T08:21:05;12.00;99.90
34522;DHT22;25561;48.888;8.736;2022-11-15T08:24:10;12.00;99.90
34522;DHT22;25561;48.888;8.736;2022-11-15T08:27:12;12.00;99.90
34522;DHT22;25561;48.888;8.736;2022-11-15T08:30:17;11.90;99.90
34522;DHT22;25561;48.888;8.736;2022-11-15T08:33:18;11.80;99.90
34522;DHT22;25561;48.888;8.736;2022-11-15T08:36:20;11.90;99.90
34522;DHT22;25561;48.888;8.736;2022-11-15T08:39:22;12.00;99.90
34522;DHT22;25561;48.888;8.736;2022-11-15T08:42:24;12.20;99.90
34522;DHT22;25561;48.888;8.736;2022-11-15T08:45:26;12.00;99.90
34522;DHT22;25561;48.888;8.736;2022-11-15T08:48:29;12.00;99.90
34522;DHT22;25561;48.888;8.736;2022-11-15T08:51:31;12.00;99.90
34522;DHT22;25561;48.888;8.736;2022-11-15T08:54:33;12.00;99.90
34522;DHT22;25561;48.888;8.736;2022-11-15T08:57:35;12.20;99.90
34522;DHT22;25561;48.888;8.736;2022-11-15T09:00:39;12.40;99.90
34522;DHT22;25561;48.888;8.736;2022-11-15T09:03:44;12.70;99.90
34522;DHT22;25561;48.888;8.736;2022-11-15T09:06:52;13.00;99.90
34522;DHT22;25561;48.888;8.736;2022-11-15T09:09:58;13.00;99.90
34522;DHT22;25561;48.888;8.736;2022-11-15T09:13:21;13.00;99.90
34522;DHT22;25561;48.888;8.736;2022-11-15T09:16:23;13.30;99.90
34522;DHT22;25561;48.888;8.736;2022-11-15T09:19:25;13.50;99.90
34522;DHT22;25561;48.888;8.736;2022-11-15T09:22:27;14.00;99.90
34522;DHT22;25561;48.888;8.736;2022-11-15T09:25:30;14.20;99.90
34522;DHT22;25561;48.888;8.736;2022-11-15T09:28:33;14.10;99.90
34522;DHT22;25561;48.888;8.736;2022-11-15T09:31:36;14.00;99.90
34522;DHT22;25561;48.888;8.736;2022-11-15T09:34:38;13.80;99.90
34522;DHT22;25561;48.888;8.736;2022-11-15T09:37:40;13.90;99.90
34522;DHT22;25561;48.888;8.736;2022-11-15T09:40:42;14.00;99.90
34522;DHT22;25561;48.888;8.736;2022-11-15T09:44:04;14.30;99.90
34522;DHT22;25561;48.888;8.736;2022-11-15T09:50:47;14.40;99.90
34522;DHT22;25561;48.888;8.736;2022-11-15T09:54:00;14.70;99.90
34522;DHT22;25561;48.888;8.736;2022-11-15T09:57:37;14.90;99.90
34522;DHT22;25561;48.888;8.736;2022-11-15T10:00:44;15.10;99.90
34522;DHT22;25561;48.888;8.736;2022-11-15T10:03:50;15.00;99.90
34522;DHT22;25561;48.888;8.736;2022-11-15T10:10:41;15.30;99.90
34522;DHT22;25561;48.888;8.736;2022-11-15T10:13:47;15.10;99.90
34522;DHT22;25561;48.888;8.736;2022-11-15T10:17:21;15.10;99.90
34522;DHT22;25561;48.888;8.736;2022-11-15T10:20:29;15.30;99.90
34522;DHT22;25561;48.888;8.736;2022-11-15T10:23:32;15.40;99.90
34522;DHT22;25561;48.888;8.736;2022-11-15T10:26:34;15.20;99.90
34522;DHT22;25561;48.888;8.736;2022-11-15T10:29:40;15.20;99.90
34522;DHT22;25561;48.888;8.736;2022-11-15T10:32:45;15.20;99.90
34522;DHT22;25561;48.888;8.736;2022-11-15T10:35:48;15.30;99.90
34522;DHT22;25561;48.888;8.736;2022-11-15T10:41:53;15.10;99.90
34522;DHT22;25561;48.888;8.736;2022-11-15T10:44:56;15.30;99.90
34522;DHT22;25561;48.888;8.736;2022-11-15T10:48:19;15.30;99.90
34522;DHT22;25561;48.888;8.736;2022-11-15T10:51:26;15.20;99.90
34522;DHT22;25561;48.888;8.736;2022-11-15T10:54:37;15.30;99.90
34522;DHT22;25561;48.888;8.736;2022-11-15T10:57:40;15.30;99.90
34522;DHT22;25561;48.888;8.736;2022-11-15T11:00:52;15.30;99.90
34522;DHT22;25561;48.888;8.736;2022-11-15T11:04:05;15.40;99.90
34522;DHT22;25561;48.888;8.736;2022-11-15T11:07:22;15.40;99.90
34522;DHT22;25561;48.888;8.736;2022-11-15T11:10:25;15.40;99.90
34522;DHT22;25561;48.888;8.736;2022-11-15T11:13:47;15.30;99.90
34522;DHT22;25561;48.888;8.736;2022-11-15T11:16:55;15.00;99.90
34522;DHT22;25561;48.888;8.736;2022-11-15T11:20:23;14.80;99.90
34522;DHT22;25561;48.888;8.736;2022-11-15T11:23:55;14.70;99.90
34522;DHT22;25561;48.888;8.736;2022-11-15T11:27:17;14.70;99.90
34522;DHT22;25561;48.888;8.736;2022-11-15T11:30:27;15.00;99.90
34522;DHT22;25561;48.888;8.736;2022-11-15T11:33:57;15.30;99.90
34522;DHT22;25561;48.888;8.736;2022-11-15T11:37:24;15.40;99.90
34522;DHT22;25561;48.888;8.736;2022-11-15T11:40:34;15.60;99.90
34522;DHT22;25561;48.888;8.736;2022-11-15T11:47:15;15.80;99.90
34522;DHT22;25561;48.888;8.736;2022-11-15T11:50:21;15.80;99.90
34522;DHT22;25561;48.888;8.736;2022-11-15T11:56:58;15.80;99.90
34522;DHT22;25561;48.888;8.736;2022-11-15T12:00:15;15.60;99.90
34522;DHT22;25561;48.888;8.736;2022-11-15T12:03:57;15.20;99.90
34522;DHT22;25561;48.888;8.736;2022-11-15T12:10:22;15.50;99.90
34522;DHT22;25561;48.888;8.736;2022-11-15T12:13:26;15.60;99.90
34522;DHT22;25561;48.888;8.736;2022-11-15T12:16:30;15.70;99.90
34522;DHT22;25561;48.888;8.736;2022-11-15T12:19:33;15.70;99.90
34522;DHT22;25561;48.888;8.736;2022-11-15T12:22:45;15.60;99.90
34522;DHT22;25561;48.888;8.736;2022-11-15T12:26:08;15.50;99.90
34522;DHT22;25561;48.888;8.736;2022-11-15T12:32:38;15.30;99.90
34522;DHT22;25561;48.888;8.736;2022-11-15T12:35:42;15.10;99.90
34522;DHT22;25561;48.888;8.736;2022-11-15T12:39:02;15.10;99.90
34522;DHT22;25561;48.888;8.736;2022-11-15T12:45:33;15.40;99.90
34522;DHT22;25561;48.888;8.736;2022-11-15T12:55:02;15.50;99.90
34522;DHT22;25561;48.888;8.736;2022-11-15T12:58:26;15.60;99.90
34522;DHT22;25561;48.888;8.736;2022-11-15T13:04:34;15.70;99.90
34522;DHT22;25561;48.888;8.736;2022-11-15T13:10:43;15.70;99.90
34522;DHT22;25561;48.888;8.736;2022-11-15T13:13:45;15.60;99.90
34522;DHT22;25561;48.888;8.736;2022-11-15T13:16:47;15.70;99.90
34522;DHT22;25561;48.888;8.736;2022-11-15T13:20:00;15.70;99.90
34522;DHT22;25561;48.888;8.736;2022-11-15T13:23:10;15.80;99.90
34522;DHT22;25561;48.888;8.736;2022-11-15T13:26:14;15.80;99.90
34522;DHT22;25561;48.888;8.736;2022-11-15T13:29:19;15.70;99.90
34522;DHT22;25561;48.888;8.736;2022-11-15T13:32:22;15.50;99.90
34522;DHT22;25561;48.888;8.736;2022-11-15T13:35:26;15.50;99.90
34522;DHT22;25561;48.888;8.736;2022-11-15T13:38:31;15.50;99.90
34522;DHT22;25561;48.888;8.736;2022-11-15T13:41:36;15.20;99.90
34522;DHT22;25561;48.888;8.736;2022-11-15T13:44:38;15.30;99.90
34522;DHT22;25561;48.888;8.736;2022-11-15T13:47:39;15.20;99.90
34522;DHT22;25561;48.888;8.736;2022-11-15T13:50:41;15.20;99.90
34522;DHT22;25561;48.888;8.736;2022-11-15T13:53:46;15.20;99.90
34522;DHT22;25561;48.888;8.736;2022-11-15T13:56:53;15.10;99.90
34522;DHT22;25561;48.888;8.736;2022-11-15T14:00:01;15.10;99.90
34522;DHT22;25561;48.888;8.736;2022-11-15T14:03:12;15.10;99.90
34522;DHT22;25561;48.888;8.736;2022-11-15T14:06:17;15.00;99.90
34522;DHT22;25561;48.888;8.736;2022-11-15T14:12:34;14.90;99.90
34522;DHT22;25561;48.888;8.736;2022-11-15T14:15:37;14.90;99.90
34522;DHT22;25561;48.888;8.736;2022-11-15T14:18:43;14.80;99.90
34522;DHT22;25561;48.888;8.736;2022-11-15T14:22:10;14.60;99.90
34522;DHT22;25561;48.888;8.736;2022-11-15T14:25:17;14.60;99.90
34522;DHT22;25561;48.888;8.736;2022-11-15T14:31:25;14.40;99.90
34522;DHT22;25561;48.888;8.736;2022-11-15T14:34:27;14.30;99.90
34522;DHT22;25561;48.888;8.736;2022-11-15T14:37:31;14.30;99.90
34522;DHT22;25561;48.888;8.736;2022-11-15T14:40:35;14.30;99.90
34522;DHT22;25561;48.888;8.736;2022-11-15T14:43:37;14.20;99.90
34522;DHT22;25561;48.888;8.736;2022-11-15T14:46:39;14.10;99.90
34522;DHT22;25561;48.888;8.736;2022-11-15T14:49:41;14.10;99.90
34522;DHT22;25561;48.888;8.736;2022-11-15T14:52:43;14.10;99.90
34522;DHT22;25561;48.888;8.736;2022-11-15T14:55:45;14.10;99.90
34522;DHT22;25561;48.888;8.736;2022-11-15T14:58:47;14.20;99.90
34522;DHT22;25561;48.888;8.736;2022-11-15T15:01:49;14.10;99.90
34522;DHT22;25561;48.888;8.736;2022-11-15T15:04:51;14.10;99.90
34522;DHT22;25561;48.888;8.736;2022-11-15T15:07:53;14.20;99.90
34522;DHT22;25561;48.888;8.736;2022-11-15T15:10:55;14.10;99.90
34522;DHT22;25561;48.888;8.736;2022-11-15T15:13:57;14.00;99.90
34522;DHT22;25561;48.888;8.736;2022-11-15T15:17:01;14.00;99.90
34522;DHT22;25561;48.888;8.736;2022-11-15T15:20:03;13.90;99.90
34522;DHT22;25561;48.888;8.736;2022-11-15T15:23:05;13.90;99.90
34522;DHT22;25561;48.888;8.736;2022-11-15T15:26:07;13.80;99.90
34522;DHT22;25561;48.888;8.736;2022-11-15T15:29:09;13.90;99.90
34522;DHT22;25561;48.888;8.736;2022-11-15T15:32:11;13.90;99.90
34522;DHT22;25561;48.888;8.736;2022-11-15T15:35:16;13.90;99.90
34522;DHT22;25561;48.888;8.736;2022-11-15T15:38:18;13.80;99.90
34522;DHT22;25561;48.888;8.736;2022-11-15T15:41:20;13.80;99.90
34522;DHT22;25561;48.888;8.736;2022-11-15T15:44:22;13.80;99.90
34522;DHT22;25561;48.888;8.736;2022-11-15T15:47:25;13.80;99.90
34522;DHT22;25561;48.888;8.736;2022-11-15T15:50:31;13.80;99.90
34522;DHT22;25561;48.888;8.736;2022-11-15T15:53:33;13.60;99.90
34522;DHT22;25561;48.888;8.736;2022-11-15T15:56:35;13.60;99.90
34522;DHT22;25561;48.888;8.736;2022-11-15T15:59:37;13.50;99.90
34522;DHT22;25561;48.888;8.736;2022-11-15T16:02:39;13.50;99.90
34522;DHT22;25561;48.888;8.736;2022-11-15T16:05:41;13.60;99.90
34522;DHT22;25561;48.888;8.736;2022-11-15T16:08:43;13.70;99.90
34522;DHT22;25561;48.888;8.736;2022-11-15T16:12:05;13.60;99.90
34522;DHT22;25561;48.888;8.736;2022-11-15T16:15:08;13.50;99.90
34522;DHT22;25561;48.888;8.736;2022-11-15T16:18:15;13.50;99.90
34522;DHT22;25561;48.888;8.736;2022-11-15T16:21:17;13.50;99.90
34522;DHT22;25561;48.888;8.736;2022-11-15T16:24:20;13.50;99.90
34522;DHT22;25561;48.888;8.736;2022-11-15T16:27:22;13.60;99.90
34522;DHT22;25561;48.888;8.736;2022-11-15T16:30:24;13.50;99.90
34522;DHT22;25561;48.888;8.736;2022-11-15T16:33:26;13.50;99.90
34522;DHT22;25561;48.888;8.736;2022-11-15T16:36:30;13.50;99.90
34522;DHT22;25561;48.888;8.736;2022-11-15T16:39:33;13.60;99.90
34522;DHT22;25561;48.888;8.736;2022-11-15T16:42:35;13.50;99.90
34522;DHT22;25561;48.888;8.736;2022-11-15T16:45:37;13.50;99.90
34522;DHT22;25561;48.888;8.736;2022-11-15T16:48:38;13.40;99.90
34522;DHT22;25561;48.888;8.736;2022-11-15T16:51:41;13.40;99.90
34522;DHT22;25561;48.888;8.736;2022-11-15T16:54:45;13.40;99.90
34522;DHT22;25561;48.888;8.736;2022-11-15T16:57:47;13.50;99.90
